createdAt,value
2022-10-19T00:00:01.060Z,96510.00
2022-10-19T00:00:11.027Z,96510.00
2022-10-19T00:00:21.205Z,96508.00
2022-10-19T00:00:31.211Z,96512.00
2022-10-19T00:00:41.066Z,96509.00
2022-10-19T00:00:51.127Z,96511.00
2022-10-19T00:01:01.125Z,96512.00
2022-10-19T00:01:11.084Z,96508.00
2022-10-19T00:01:21.007Z,96511.00
2022-10-19T00:01:31.097Z,96508.00
2022-10-19T00:01:41.312Z,96507.00
2022-10-19T00:01:51.057Z,96504.00
2022-10-19T00:02:01.052Z,96503.00
2022-10-19T00:02:11.483Z,96504.00
2022-10-19T00:02:21.106Z,96506.00
2022-10-19T00:02:31.260Z,96507.00
2022-10-19T00:02:40.990Z,96509.00
2022-10-19T00:02:51.263Z,96508.00
2022-10-19T00:03:01.185Z,96511.00
2022-10-19T00:03:11.177Z,96506.00
2022-10-19T00:03:23.374Z,96510.00
2022-10-19T00:03:31.066Z,96510.00
2022-10-19T00:03:41.131Z,96508.00
2022-10-19T00:03:51.141Z,96508.00
2022-10-19T00:04:03.576Z,96507.00
2022-10-19T00:04:11.064Z,96508.00
2022-10-19T00:04:21.313Z,96509.00
2022-10-19T00:04:31.139Z,96506.00
2022-10-19T00:04:41.051Z,96507.00
2022-10-19T00:04:51.258Z,96511.00
2022-10-19T00:05:01.182Z,96507.00
2022-10-19T00:05:11.121Z,96504.00
2022-10-19T00:05:21.103Z,96507.00
2022-10-19T00:05:31.012Z,96511.00
2022-10-19T00:05:41.253Z,96509.00
2022-10-19T00:05:51.030Z,96509.00
2022-10-19T00:06:01.173Z,96511.00
2022-10-19T00:06:11.150Z,96506.00
2022-10-19T00:06:21.240Z,96506.00
2022-10-19T00:06:31.164Z,96506.00
2022-10-19T00:06:41.103Z,96508.00
2022-10-19T00:06:51.146Z,96509.00
2022-10-19T00:07:01.247Z,96505.00
2022-10-19T00:07:11.273Z,96507.00
2022-10-19T00:07:21.117Z,96506.00
2022-10-19T00:07:31.576Z,96506.00
2022-10-19T00:07:41.148Z,96506.00
2022-10-19T00:07:51.171Z,96504.00
2022-10-19T00:08:01.013Z,96505.00
2022-10-19T00:08:11.033Z,96507.00
2022-10-19T00:08:21.149Z,96504.00
2022-10-19T00:08:31.114Z,96504.00
2022-10-19T00:08:41.202Z,96508.00
2022-10-19T00:08:51.262Z,96503.00
2022-10-19T00:09:01.214Z,96503.00
2022-10-19T00:09:11.214Z,96506.00
2022-10-19T00:09:21.103Z,96507.00
2022-10-19T00:09:31.328Z,96506.00
2022-10-19T00:09:41.070Z,96508.00
2022-10-19T00:09:51.275Z,96506.00
2022-10-19T00:10:01.150Z,96507.00
2022-10-19T00:10:11.179Z,96505.00
2022-10-19T00:10:21.271Z,96507.00
2022-10-19T00:10:30.997Z,96507.00
2022-10-19T00:10:41.097Z,96504.00
2022-10-19T00:10:51.172Z,96507.00
2022-10-19T00:11:01.304Z,96508.00
2022-10-19T00:11:11.053Z,96505.00
2022-10-19T00:11:21.261Z,96505.00
2022-10-19T00:11:31.132Z,96506.00
2022-10-19T00:11:41.285Z,96505.00
2022-10-19T00:11:51.129Z,96508.00
2022-10-19T00:12:01.226Z,96506.00
2022-10-19T00:12:11.056Z,96509.00
2022-10-19T00:12:21.113Z,96507.00
2022-10-19T00:12:31.124Z,96509.00
2022-10-19T00:12:41.178Z,96506.00
2022-10-19T00:12:51.043Z,96509.00
2022-10-19T00:13:01.145Z,96509.00
2022-10-19T00:13:11.166Z,96507.00
2022-10-19T00:13:21.116Z,96508.00
2022-10-19T00:13:31.262Z,96509.00
2022-10-19T00:13:41.011Z,96504.00
2022-10-19T00:13:51.070Z,96503.00
2022-10-19T00:14:01.190Z,96506.00
2022-10-19T00:14:11.277Z,96506.00
2022-10-19T00:14:21.130Z,96505.00
2022-10-19T00:14:31.185Z,96506.00
2022-10-19T00:14:41.298Z,96510.00
2022-10-19T00:14:51.129Z,96509.00
2022-10-19T00:15:01.052Z,96512.00
2022-10-19T00:15:11.181Z,96510.00
2022-10-19T00:15:21.265Z,96511.00
2022-10-19T00:15:31.216Z,96508.00
2022-10-19T00:15:41.187Z,96507.00
2022-10-19T00:15:51.026Z,96507.00
2022-10-19T00:16:01.024Z,96508.00
2022-10-19T00:16:11.614Z,96510.00
2022-10-19T00:16:21.052Z,96511.00
2022-10-19T00:16:31.095Z,96508.00
2022-10-19T00:16:41.094Z,96506.00
2022-10-19T00:16:51.079Z,96507.00
2022-10-19T00:17:01.112Z,96508.00
2022-10-19T00:17:11.256Z,96509.00
2022-10-19T00:17:21.086Z,96508.00
2022-10-19T00:17:31.575Z,96505.00
2022-10-19T00:17:41.170Z,96507.00
2022-10-19T00:17:51.221Z,96505.00
2022-10-19T00:18:01.015Z,96504.00
2022-10-19T00:18:11.140Z,96508.00
2022-10-19T00:18:21.284Z,96508.00
2022-10-19T00:18:31.029Z,96505.00
2022-10-19T00:18:41.123Z,96506.00
2022-10-19T00:18:51.167Z,96506.00
2022-10-19T00:19:01.241Z,96509.00
2022-10-19T00:19:11.191Z,96506.00
2022-10-19T00:19:21.105Z,96510.00
2022-10-19T00:19:31.042Z,96510.00
2022-10-19T00:19:41.280Z,96507.00
2022-10-19T00:19:51.048Z,96509.00
2022-10-19T00:20:01.250Z,96507.00
2022-10-19T00:20:11.158Z,96506.00
2022-10-19T00:20:21.212Z,96512.00
2022-10-19T00:20:31.177Z,96508.00
2022-10-19T00:20:41.121Z,96507.00
2022-10-19T00:20:51.189Z,96509.00
2022-10-19T00:21:01.286Z,96508.00
2022-10-19T00:21:11.314Z,96508.00
2022-10-19T00:21:21.226Z,96510.00
2022-10-19T00:21:31.012Z,96510.00
2022-10-19T00:21:41.251Z,96508.00
2022-10-19T00:22:01.059Z,96507.00
2022-10-19T00:22:13.189Z,96511.00
2022-10-19T00:22:21.030Z,96508.00
2022-10-19T00:22:31.566Z,96512.00
2022-10-19T00:22:41.127Z,96511.00
2022-10-19T00:22:51.247Z,96515.00
2022-10-19T00:23:01.063Z,96511.00
2022-10-19T00:23:11.336Z,96507.00
2022-10-19T00:23:21.293Z,96510.00
2022-10-19T00:23:31.184Z,96513.00
2022-10-19T00:23:41.018Z,96509.00
2022-10-19T00:23:51.300Z,96512.00
2022-10-19T00:24:01.090Z,96512.00
2022-10-19T00:24:11.226Z,96510.00
2022-10-19T00:24:21.143Z,96509.00
2022-10-19T00:24:31.196Z,96511.00
2022-10-19T00:24:41.244Z,96507.00
2022-10-19T00:24:51.067Z,96510.00
2022-10-19T00:25:01.258Z,96509.00
2022-10-19T00:25:11.289Z,96507.00
2022-10-19T00:25:21.089Z,96507.00
2022-10-19T00:25:31.137Z,96510.00
2022-10-19T00:25:41.039Z,96508.00
2022-10-19T00:25:51.053Z,96509.00
2022-10-19T00:26:01.157Z,96506.00
2022-10-19T00:26:11.024Z,96509.00
2022-10-19T00:26:21.305Z,96506.00
2022-10-19T00:26:31.120Z,96508.00
2022-10-19T00:26:41.216Z,96509.00
2022-10-19T00:26:51.311Z,96508.00
2022-10-19T00:27:01.106Z,96509.00
2022-10-19T00:27:11.047Z,96505.00
2022-10-19T00:27:21.129Z,96509.00
2022-10-19T00:27:30.997Z,96507.00
2022-10-19T00:27:41.045Z,96507.00
2022-10-19T00:27:51.003Z,96507.00
2022-10-19T00:28:01.287Z,96504.00
2022-10-19T00:28:11.087Z,96506.00
2022-10-19T00:28:21.043Z,96507.00
2022-10-19T00:28:31.324Z,96506.00
2022-10-19T00:28:41.105Z,96508.00
2022-10-19T00:28:51.378Z,96509.00
2022-10-19T00:29:01.186Z,96509.00
2022-10-19T00:29:11.266Z,96508.00
2022-10-19T00:29:21.098Z,96508.00
2022-10-19T00:29:31.373Z,96508.00
2022-10-19T00:29:41.097Z,96509.00
2022-10-19T00:29:51.240Z,96507.00
2022-10-19T00:30:01.181Z,96506.00
2022-10-19T00:30:11.087Z,96506.00
2022-10-19T00:30:21.259Z,96511.00
2022-10-19T00:30:31.193Z,96509.00
2022-10-19T00:30:41.262Z,96508.00
2022-10-19T00:30:51.296Z,96509.00
2022-10-19T00:31:01.011Z,96507.00
2022-10-19T00:31:11.024Z,96505.00
2022-10-19T00:31:21.275Z,96508.00
2022-10-19T00:31:31.106Z,96507.00
2022-10-19T00:31:41.223Z,96506.00
2022-10-19T00:31:51.181Z,96508.00
2022-10-19T00:32:01.265Z,96508.00
2022-10-19T00:32:11.173Z,96508.00
2022-10-19T00:32:21.262Z,96510.00
2022-10-19T00:32:31.496Z,96505.00
2022-10-19T00:32:41.092Z,96511.00
2022-10-19T00:32:51.025Z,96510.00
2022-10-19T00:33:01.009Z,96511.00
2022-10-19T00:33:11.267Z,96508.00
2022-10-19T00:33:21.260Z,96509.00
2022-10-19T00:33:31.115Z,96509.00
2022-10-19T00:33:41.059Z,96509.00
2022-10-19T00:33:51.082Z,96511.00
2022-10-19T00:34:01.069Z,96511.00
2022-10-19T00:34:11.309Z,96508.00
2022-10-19T00:34:21.210Z,96509.00
2022-10-19T00:34:31.167Z,96512.00
2022-10-19T00:34:41.255Z,96511.00
2022-10-19T00:34:51.228Z,96511.00
2022-10-19T00:35:00.993Z,96513.00
2022-10-19T00:35:11.157Z,96510.00
2022-10-19T00:35:21.229Z,96511.00
2022-10-19T00:35:31.174Z,96511.00
2022-10-19T00:35:41.274Z,96512.00
2022-10-19T00:35:51.114Z,96509.00
2022-10-19T00:36:01.078Z,96509.00
2022-10-19T00:36:11.105Z,96514.00
2022-10-19T00:36:21.264Z,96513.00
2022-10-19T00:36:31.240Z,96509.00
2022-10-19T00:36:41.164Z,96513.00
2022-10-19T00:36:51.094Z,96510.00
2022-10-19T00:37:01.214Z,96511.00
2022-10-19T00:37:11.267Z,96513.00
2022-10-19T00:37:21.142Z,96511.00
2022-10-19T00:37:31.126Z,96508.00
2022-10-19T00:37:41.302Z,96512.00
2022-10-19T00:37:51.023Z,96509.00
2022-10-19T00:38:01.341Z,96510.00
2022-10-19T00:38:11.068Z,96510.00
2022-10-19T00:38:21.102Z,96509.00
2022-10-19T00:38:31.281Z,96509.00
2022-10-19T00:38:41.279Z,96512.00
2022-10-19T00:38:51.229Z,96513.00
2022-10-19T00:39:01.024Z,96509.00
2022-10-19T00:39:11.122Z,96512.00
2022-10-19T00:39:21.021Z,96508.00
2022-10-19T00:39:31.431Z,96513.00
2022-10-19T00:39:41.081Z,96513.00
2022-10-19T00:40:01.205Z,96510.00
2022-10-19T00:40:11.311Z,96509.00
2022-10-19T00:40:21.240Z,96511.00
2022-10-19T00:40:31.181Z,96510.00
2022-10-19T00:40:41.355Z,96512.00
2022-10-19T00:40:51.062Z,96510.00
2022-10-19T00:41:01.231Z,96507.00
2022-10-19T00:41:11.015Z,96507.00
2022-10-19T00:41:21.139Z,96507.00
2022-10-19T00:41:31.099Z,96509.00
2022-10-19T00:41:41.226Z,96508.00
2022-10-19T00:41:51.012Z,96508.00
2022-10-19T00:42:01.034Z,96506.00
2022-10-19T00:42:11.204Z,96511.00
2022-10-19T00:42:21.049Z,96509.00
2022-10-19T00:42:31.316Z,96506.00
2022-10-19T00:42:41.256Z,96506.00
2022-10-19T00:42:51.163Z,96504.00
2022-10-19T00:43:01.134Z,96507.00
2022-10-19T00:43:11.025Z,96505.00
2022-10-19T00:43:21.177Z,96505.00
2022-10-19T00:43:31.008Z,96505.00
2022-10-19T00:43:41.081Z,96502.00
2022-10-19T00:43:51.085Z,96508.00
2022-10-19T00:44:01.238Z,96506.00
2022-10-19T00:44:11.280Z,96507.00
2022-10-19T00:44:21.006Z,96504.00
2022-10-19T00:44:31.121Z,96504.00
2022-10-19T00:44:41.248Z,96506.00
2022-10-19T00:44:51.303Z,96505.00
2022-10-19T00:45:01.245Z,96506.00
2022-10-19T00:45:11.160Z,96506.00
2022-10-19T00:45:21.215Z,96506.00
2022-10-19T00:45:31.290Z,96503.00
2022-10-19T00:45:41.013Z,96506.00
2022-10-19T00:45:51.130Z,96504.00
2022-10-19T00:46:01.167Z,96506.00
2022-10-19T00:46:11.012Z,96507.00
2022-10-19T00:46:21.198Z,96505.00
2022-10-19T00:46:31.294Z,96506.00
2022-10-19T00:46:41.084Z,96505.00
2022-10-19T00:46:51.310Z,96503.00
2022-10-19T00:47:01.090Z,96502.00
2022-10-19T00:47:11.103Z,96504.00
2022-10-19T00:47:20.999Z,96502.00
2022-10-19T00:47:30.990Z,96505.00
2022-10-19T00:47:41.179Z,96504.00
2022-10-19T00:47:51.153Z,96508.00
2022-10-19T00:48:01.021Z,96506.00
2022-10-19T00:48:11.262Z,96507.00
2022-10-19T00:48:21.265Z,96506.00
2022-10-19T00:48:31.280Z,96504.00
2022-10-19T00:48:41.295Z,96506.00
2022-10-19T00:48:51.147Z,96506.00
2022-10-19T00:49:01.734Z,96507.00
2022-10-19T00:49:11.289Z,96507.00
2022-10-19T00:49:20.998Z,96504.00
2022-10-19T00:49:31.160Z,96502.00
2022-10-19T00:49:41.044Z,96507.00
2022-10-19T00:49:51.157Z,96508.00
2022-10-19T00:50:01.202Z,96504.00
2022-10-19T00:50:11.069Z,96504.00
2022-10-19T00:50:21.280Z,96505.00
2022-10-19T00:50:31.284Z,96505.00
2022-10-19T00:50:41.277Z,96502.00
2022-10-19T00:50:51.016Z,96506.00
2022-10-19T00:51:01.080Z,96503.00
2022-10-19T00:51:11.222Z,96503.00
2022-10-19T00:51:21.098Z,96501.00
2022-10-19T00:51:31.175Z,96501.00
2022-10-19T00:51:41.288Z,96499.00
2022-10-19T00:51:51.261Z,96502.00
2022-10-19T00:52:01.128Z,96503.00
2022-10-19T00:52:11.133Z,96502.00
2022-10-19T00:52:21.071Z,96501.00
2022-10-19T00:52:31.645Z,96503.00
2022-10-19T00:52:41.135Z,96503.00
2022-10-19T00:52:50.996Z,96503.00
2022-10-19T00:53:01.138Z,96502.00
2022-10-19T00:53:11.030Z,96503.00
2022-10-19T00:53:21.228Z,96502.00
2022-10-19T00:53:31.181Z,96505.00
2022-10-19T00:53:41.097Z,96502.00
2022-10-19T00:53:51.269Z,96499.00
2022-10-19T00:54:01.131Z,96501.00
2022-10-19T00:54:11.102Z,96501.00
2022-10-19T00:54:21.024Z,96498.00
2022-10-19T00:54:31.173Z,96503.00
2022-10-19T00:54:41.260Z,96500.00
2022-10-19T00:54:51.142Z,96500.00
2022-10-19T00:55:01.296Z,96501.00
2022-10-19T00:55:11.107Z,96501.00
2022-10-19T00:55:21.094Z,96502.00
2022-10-19T00:55:31.153Z,96499.00
2022-10-19T00:55:41.041Z,96500.00
2022-10-19T00:55:51.056Z,96500.00
2022-10-19T00:56:01.143Z,96495.00
2022-10-19T00:56:11.187Z,96498.00
2022-10-19T00:56:21.097Z,96502.00
2022-10-19T00:56:31.279Z,96500.00
2022-10-19T00:56:41.274Z,96498.00
2022-10-19T00:56:51.048Z,96497.00
2022-10-19T00:57:01.140Z,96502.00
2022-10-19T00:57:11.114Z,96500.00
2022-10-19T00:57:21.022Z,96499.00
2022-10-19T00:57:31.155Z,96497.00
2022-10-19T00:57:41.171Z,96496.00
2022-10-19T00:58:01.268Z,96498.00
2022-10-19T00:58:11.187Z,96502.00
2022-10-19T00:58:21.263Z,96500.00
2022-10-19T00:58:31.090Z,96496.00
2022-10-19T00:58:41.215Z,96498.00
2022-10-19T00:58:51.075Z,96499.00
2022-10-19T00:59:01.140Z,96499.00
2022-10-19T00:59:11.195Z,96498.00
2022-10-19T00:59:21.066Z,96496.00
2022-10-19T00:59:31.021Z,96499.00
2022-10-19T00:59:41.104Z,96499.00
2022-10-19T00:59:51.006Z,96496.00
2022-10-19T01:00:01.293Z,96497.00
2022-10-19T01:00:11.145Z,96500.00
2022-10-19T01:00:21.134Z,96501.00
2022-10-19T01:00:31.226Z,96497.00
2022-10-19T01:00:41.073Z,96497.00
2022-10-19T01:00:51.226Z,96501.00
2022-10-19T01:01:01.216Z,96499.00
2022-10-19T01:01:11.317Z,96497.00
2022-10-19T01:01:21.180Z,96501.00
2022-10-19T01:01:31.289Z,96497.00
2022-10-19T01:01:41.253Z,96499.00
2022-10-19T01:01:51.238Z,96499.00
2022-10-19T01:02:01.186Z,96499.00
2022-10-19T01:02:11.074Z,96499.00
2022-10-19T01:02:21.046Z,96499.00
2022-10-19T01:02:31.490Z,96502.00
2022-10-19T01:02:41.344Z,96501.00
2022-10-19T01:02:51.263Z,96502.00
2022-10-19T01:03:01.014Z,96504.00
2022-10-19T01:03:11.225Z,96501.00
2022-10-19T01:03:21.155Z,96503.00
2022-10-19T01:03:31.097Z,96503.00
2022-10-19T01:03:41.142Z,96500.00
2022-10-19T01:03:51.110Z,96503.00
2022-10-19T01:04:01.244Z,96504.00
2022-10-19T01:04:11.029Z,96500.00
2022-10-19T01:04:21.108Z,96505.00
2022-10-19T01:04:31.200Z,96503.00
2022-10-19T01:04:41.309Z,96503.00
2022-10-19T01:04:51.007Z,96506.00
2022-10-19T01:05:01.207Z,96500.00
2022-10-19T01:05:11.183Z,96501.00
2022-10-19T01:05:21.270Z,96501.00
2022-10-19T01:05:31.059Z,96500.00
2022-10-19T01:05:41.185Z,96502.00
2022-10-19T01:05:51.021Z,96500.00
2022-10-19T01:06:01.195Z,96505.00
2022-10-19T01:06:11.065Z,96502.00
2022-10-19T01:06:21.017Z,96503.00
2022-10-19T01:06:31.180Z,96505.00
2022-10-19T01:06:41.237Z,96506.00
2022-10-19T01:07:01.205Z,96500.00
2022-10-19T01:07:11.006Z,96497.00
2022-10-19T01:07:21.125Z,96500.00
2022-10-19T01:07:31.215Z,96503.00
2022-10-19T01:07:41.007Z,96502.00
2022-10-19T01:07:51.147Z,96503.00
2022-10-19T01:08:01.140Z,96504.00
2022-10-19T01:08:11.051Z,96503.00
2022-10-19T01:08:21.265Z,96503.00
2022-10-19T01:08:31.279Z,96502.00
2022-10-19T01:08:41.126Z,96502.00
2022-10-19T01:08:51.270Z,96502.00
2022-10-19T01:09:01.072Z,96502.00
2022-10-19T01:09:11.043Z,96500.00
2022-10-19T01:09:21.176Z,96503.00
2022-10-19T01:09:31.198Z,96502.00
2022-10-19T01:09:41.105Z,96504.00
2022-10-19T01:09:51.113Z,96499.00
2022-10-19T01:10:01.203Z,96502.00
2022-10-19T01:10:11.055Z,96501.00
2022-10-19T01:10:21.107Z,96504.00
2022-10-19T01:10:31.103Z,96500.00
2022-10-19T01:10:41.053Z,96504.00
2022-10-19T01:10:51.110Z,96503.00
2022-10-19T01:11:01.107Z,96501.00
2022-10-19T01:11:11.190Z,96503.00
2022-10-19T01:11:21.193Z,96499.00
2022-10-19T01:11:31.120Z,96502.00
2022-10-19T01:11:41.050Z,96499.00
2022-10-19T01:11:51.378Z,96500.00
2022-10-19T01:12:01.106Z,96504.00
2022-10-19T01:12:11.135Z,96501.00
2022-10-19T01:12:21.244Z,96500.00
2022-10-19T01:12:31.236Z,96501.00
2022-10-19T01:12:41.033Z,96503.00
2022-10-19T01:12:51.045Z,96500.00
2022-10-19T01:13:01.133Z,96500.00
2022-10-19T01:13:11.147Z,96499.00
2022-10-19T01:13:21.323Z,96501.00
2022-10-19T01:13:31.176Z,96499.00
2022-10-19T01:13:41.243Z,96501.00
2022-10-19T01:13:51.156Z,96497.00
2022-10-19T01:14:01.016Z,96499.00
2022-10-19T01:14:11.052Z,96499.00
2022-10-19T01:14:21.147Z,96497.00
2022-10-19T01:14:31.340Z,96498.00
2022-10-19T01:14:41.121Z,96498.00
2022-10-19T01:14:51.035Z,96496.00
2022-10-19T01:15:01.052Z,96498.00
2022-10-19T01:15:11.172Z,96498.00
2022-10-19T01:15:21.139Z,96498.00
2022-10-19T01:15:31.079Z,96496.00
2022-10-19T01:15:41.273Z,96495.00
2022-10-19T01:15:51.062Z,96496.00
2022-10-19T01:16:01.119Z,96494.00
2022-10-19T01:16:11.256Z,96496.00
2022-10-19T01:16:21.001Z,96493.00
2022-10-19T01:16:31.072Z,96492.00
2022-10-19T01:16:41.003Z,96497.00
2022-10-19T01:16:51.220Z,96494.00
2022-10-19T01:17:01.149Z,96497.00
2022-10-19T01:17:11.170Z,96492.00
2022-10-19T01:17:21.285Z,96497.00
2022-10-19T01:17:31.274Z,96495.00
2022-10-19T01:17:41.066Z,96496.00
2022-10-19T01:17:51.096Z,96497.00
2022-10-19T01:18:01.057Z,96495.00
2022-10-19T01:18:11.014Z,96495.00
2022-10-19T01:18:21.005Z,96496.00
2022-10-19T01:18:31.011Z,96491.00
2022-10-19T01:18:41.311Z,96494.00
2022-10-19T01:18:51.033Z,96493.00
2022-10-19T01:19:01.267Z,96494.00
2022-10-19T01:19:11.083Z,96492.00
2022-10-19T01:19:20.999Z,96496.00
2022-10-19T01:19:31.258Z,96493.00
2022-10-19T01:19:41.090Z,96494.00
2022-10-19T01:19:51.146Z,96498.00
2022-10-19T01:20:01.110Z,96494.00
2022-10-19T01:20:11.262Z,96493.00
2022-10-19T01:20:21.126Z,96492.00
2022-10-19T01:20:31.206Z,96495.00
2022-10-19T01:20:41.042Z,96493.00
2022-10-19T01:20:51.025Z,96490.00
2022-10-19T01:21:01.214Z,96494.00
2022-10-19T01:21:10.998Z,96490.00
2022-10-19T01:21:21.218Z,96491.00
2022-10-19T01:21:31.171Z,96488.00
2022-10-19T01:21:41.160Z,96490.00
2022-10-19T01:21:51.164Z,96488.00
2022-10-19T01:22:01.080Z,96493.00
2022-10-19T01:22:11.272Z,96488.00
2022-10-19T01:22:21.284Z,96493.00
2022-10-19T01:22:31.050Z,96488.00
2022-10-19T01:22:41.236Z,96490.00
2022-10-19T01:22:51.067Z,96490.00
2022-10-19T01:23:01.076Z,96491.00
2022-10-19T01:23:11.231Z,96489.00
2022-10-19T01:23:21.232Z,96488.00
2022-10-19T01:23:31.092Z,96490.00
2022-10-19T01:23:41.090Z,96489.00
2022-10-19T01:23:51.119Z,96488.00
2022-10-19T01:24:01.211Z,96487.00
2022-10-19T01:24:11.281Z,96488.00
2022-10-19T01:24:21.090Z,96486.00
2022-10-19T01:24:31.217Z,96487.00
2022-10-19T01:24:41.106Z,96487.00
2022-10-19T01:24:51.242Z,96489.00
2022-10-19T01:25:01.152Z,96489.00
2022-10-19T01:25:11.083Z,96487.00
2022-10-19T01:25:21.106Z,96486.00
2022-10-19T01:25:31.186Z,96488.00
2022-10-19T01:25:41.097Z,96485.00
2022-10-19T01:25:51.141Z,96487.00
2022-10-19T01:26:01.082Z,96486.00
2022-10-19T01:26:11.229Z,96485.00
2022-10-19T01:26:21.176Z,96485.00
2022-10-19T01:26:31.238Z,96484.00
2022-10-19T01:26:41.087Z,96489.00
2022-10-19T01:26:51.128Z,96486.00
2022-10-19T01:27:01.070Z,96488.00
2022-10-19T01:27:11.071Z,96485.00
2022-10-19T01:27:21.119Z,96488.00
2022-10-19T01:27:31.426Z,96486.00
2022-10-19T01:27:40.998Z,96485.00
2022-10-19T01:27:51.057Z,96484.00
2022-10-19T01:28:01.165Z,96485.00
2022-10-19T01:28:11.258Z,96482.00
2022-10-19T01:28:21.086Z,96487.00
2022-10-19T01:28:31.374Z,96484.00
2022-10-19T01:28:41.206Z,96487.00
2022-10-19T01:28:51.223Z,96484.00
2022-10-19T01:29:01.201Z,96481.00
2022-10-19T01:29:11.112Z,96485.00
2022-10-19T01:29:21.013Z,96485.00
2022-10-19T01:29:31.160Z,96487.00
2022-10-19T01:29:41.215Z,96484.00
2022-10-19T01:29:51.080Z,96484.00
2022-10-19T01:30:01.143Z,96486.00
2022-10-19T01:30:11.127Z,96485.00
2022-10-19T01:30:21.064Z,96485.00
2022-10-19T01:30:31.176Z,96481.00
2022-10-19T01:30:41.265Z,96484.00
2022-10-19T01:30:51.141Z,96484.00
2022-10-19T01:31:01.166Z,96486.00
2022-10-19T01:31:11.001Z,96484.00
2022-10-19T01:31:21.204Z,96482.00
2022-10-19T01:31:31.112Z,96483.00
2022-10-19T01:31:41.247Z,96481.00
2022-10-19T01:31:51.050Z,96482.00
2022-10-19T01:32:01.003Z,96484.00
2022-10-19T01:32:11.090Z,96481.00
2022-10-19T01:32:21.081Z,96484.00
2022-10-19T01:32:31.221Z,96485.00
2022-10-19T01:32:41.178Z,96485.00
2022-10-19T01:32:51.177Z,96482.00
2022-10-19T01:33:01.189Z,96482.00
2022-10-19T01:33:11.194Z,96482.00
2022-10-19T01:33:21.232Z,96483.00
2022-10-19T01:33:31.175Z,96486.00
2022-10-19T01:33:41.167Z,96483.00
2022-10-19T01:33:51.227Z,96482.00
2022-10-19T01:34:01.060Z,96483.00
2022-10-19T01:34:11.298Z,96485.00
2022-10-19T01:34:21.041Z,96483.00
2022-10-19T01:34:31.159Z,96483.00
2022-10-19T01:34:41.103Z,96482.00
2022-10-19T01:34:51.021Z,96480.00
2022-10-19T01:35:01.064Z,96481.00
2022-10-19T01:35:11.249Z,96477.00
2022-10-19T01:35:21.017Z,96478.00
2022-10-19T01:35:31.009Z,96478.00
2022-10-19T01:35:41.116Z,96479.00
2022-10-19T01:35:51.009Z,96480.00
2022-10-19T01:36:01.325Z,96481.00
2022-10-19T01:36:11.082Z,96480.00
2022-10-19T01:36:21.029Z,96480.00
2022-10-19T01:36:31.303Z,96476.00
2022-10-19T01:36:41.035Z,96480.00
2022-10-19T01:36:51.009Z,96478.00
2022-10-19T01:37:01.256Z,96480.00
2022-10-19T01:37:11.273Z,96478.00
2022-10-19T01:37:21.175Z,96480.00
2022-10-19T01:37:31.279Z,96477.00
2022-10-19T01:37:41.145Z,96479.00
2022-10-19T01:37:51.239Z,96479.00
2022-10-19T01:38:01.112Z,96480.00
2022-10-19T01:38:11.276Z,96481.00
2022-10-19T01:38:21.261Z,96479.00
2022-10-19T01:38:31.266Z,96481.00
2022-10-19T01:38:41.083Z,96478.00
2022-10-19T01:38:51.169Z,96477.00
2022-10-19T01:39:01.254Z,96479.00
2022-10-19T01:39:11.060Z,96476.00
2022-10-19T01:39:21.009Z,96476.00
2022-10-19T01:39:31.306Z,96478.00
2022-10-19T01:39:41.014Z,96478.00
2022-10-19T01:39:51.077Z,96479.00
2022-10-19T01:40:01.133Z,96473.00
2022-10-19T01:40:11.103Z,96480.00
2022-10-19T01:40:21.033Z,96478.00
2022-10-19T01:40:31.349Z,96478.00
2022-10-19T01:40:41.212Z,96476.00
2022-10-19T01:40:51.161Z,96479.00
2022-10-19T01:41:01.169Z,96479.00
2022-10-19T01:41:11.136Z,96476.00
2022-10-19T01:41:21.300Z,96479.00
2022-10-19T01:41:31.183Z,96478.00
2022-10-19T01:41:41.146Z,96479.00
2022-10-19T01:41:51.295Z,96479.00
2022-10-19T01:42:01.097Z,96478.00
2022-10-19T01:42:11.062Z,96477.00
2022-10-19T01:42:21.159Z,96474.00
2022-10-19T01:42:31.133Z,96477.00
2022-10-19T01:42:41.244Z,96476.00
2022-10-19T01:42:51.257Z,96477.00
2022-10-19T01:43:01.206Z,96477.00
2022-10-19T01:43:11.178Z,96477.00
2022-10-19T01:43:21.161Z,96472.00
2022-10-19T01:43:31.242Z,96475.00
2022-10-19T01:43:41.244Z,96473.00
2022-10-19T01:43:51.162Z,96473.00
2022-10-19T01:44:01.064Z,96475.00
2022-10-19T01:44:11.202Z,96475.00
2022-10-19T01:44:21.245Z,96475.00
2022-10-19T01:44:31.319Z,96476.00
2022-10-19T01:44:41.415Z,96474.00
2022-10-19T01:44:51.202Z,96477.00
2022-10-19T01:45:01.131Z,96475.00
2022-10-19T01:45:11.169Z,96471.00
2022-10-19T01:45:21.027Z,96476.00
2022-10-19T01:45:31.018Z,96477.00
2022-10-19T01:45:41.112Z,96472.00
2022-10-19T01:45:51.203Z,96473.00
2022-10-19T01:46:01.183Z,96473.00
2022-10-19T01:46:11.162Z,96476.00
2022-10-19T01:46:21.074Z,96475.00
2022-10-19T01:46:31.241Z,96475.00
2022-10-19T01:46:41.181Z,96477.00
2022-10-19T01:46:51.243Z,96476.00
2022-10-19T01:47:01.040Z,96474.00
2022-10-19T01:47:11.287Z,96477.00
2022-10-19T01:47:21.055Z,96477.00
2022-10-19T01:47:31.350Z,96475.00
2022-10-19T01:47:41.354Z,96475.00
2022-10-19T01:47:51.210Z,96473.00
2022-10-19T01:48:01.189Z,96476.00
2022-10-19T01:48:11.039Z,96477.00
2022-10-19T01:48:21.210Z,96475.00
2022-10-19T01:48:31.268Z,96476.00
2022-10-19T01:48:41.274Z,96473.00
2022-10-19T01:48:51.178Z,96476.00
2022-10-19T01:49:01.243Z,96475.00
2022-10-19T01:49:11.199Z,96476.00
2022-10-19T01:49:21.149Z,96473.00
2022-10-19T01:49:31.117Z,96474.00
2022-10-19T01:49:41.024Z,96477.00
2022-10-19T01:49:51.275Z,96479.00
2022-10-19T01:50:01.132Z,96477.00
2022-10-19T01:50:11.226Z,96477.00
2022-10-19T01:50:21.015Z,96476.00
2022-10-19T01:50:31.066Z,96477.00
2022-10-19T01:50:41.125Z,96476.00
2022-10-19T01:50:51.186Z,96477.00
2022-10-19T01:51:01.319Z,96477.00
2022-10-19T01:51:11.018Z,96477.00
2022-10-19T01:51:21.055Z,96479.00
2022-10-19T01:51:31.094Z,96479.00
2022-10-19T01:51:41.025Z,96479.00
2022-10-19T01:51:51.278Z,96479.00
2022-10-19T01:52:01.121Z,96479.00
2022-10-19T01:52:11.161Z,96477.00
2022-10-19T01:52:21.010Z,96479.00
2022-10-19T01:52:31.378Z,96477.00
2022-10-19T01:52:41.249Z,96476.00
2022-10-19T01:52:51.062Z,96476.00
2022-10-19T01:53:01.059Z,96478.00
2022-10-19T01:53:11.008Z,96476.00
2022-10-19T01:53:21.065Z,96480.00
2022-10-19T01:53:31.270Z,96478.00
2022-10-19T01:53:41.305Z,96478.00
2022-10-19T01:53:51.227Z,96479.00
2022-10-19T01:54:01.078Z,96476.00
2022-10-19T01:54:11.100Z,96478.00
2022-10-19T01:54:21.107Z,96478.00
2022-10-19T01:54:31.101Z,96483.00
2022-10-19T01:54:41.268Z,96477.00
2022-10-19T01:54:51.067Z,96479.00
2022-10-19T01:55:01.086Z,96481.00
2022-10-19T01:55:11.201Z,96480.00
2022-10-19T01:55:21.138Z,96477.00
2022-10-19T01:55:31.201Z,96480.00
2022-10-19T01:55:41.002Z,96479.00
2022-10-19T01:55:51.289Z,96478.00
2022-10-19T01:56:01.067Z,96479.00
2022-10-19T01:56:11.068Z,96481.00
2022-10-19T01:56:21.014Z,96476.00
2022-10-19T01:56:31.116Z,96481.00
2022-10-19T01:56:41.103Z,96481.00
2022-10-19T01:56:51.125Z,96481.00
2022-10-19T01:57:01.145Z,96480.00
2022-10-19T01:57:11.131Z,96481.00
2022-10-19T01:57:21.013Z,96479.00
2022-10-19T01:57:31.120Z,96477.00
2022-10-19T01:57:41.149Z,96477.00
2022-10-19T01:57:51.292Z,96478.00
2022-10-19T01:58:01.265Z,96479.00